createdAt,value
2023-04-13T00:01:12.306Z,56.51
2023-04-13T00:03:43.001Z,56.29
2023-04-13T00:06:12.613Z,56.80
2023-04-13T00:08:44.689Z,56.87
2023-04-13T00:11:14.882Z,56.40
2023-04-13T00:13:48.525Z,56.71
2023-04-13T00:16:18.996Z,56.79
2023-04-13T00:18:48.155Z,57.09
2023-04-13T00:21:20.679Z,57.49
2023-04-13T00:23:50.107Z,57.42
2023-04-13T00:26:22.915Z,57.56
2023-04-13T00:28:52.651Z,57.68
2023-04-13T00:31:22.175Z,57.53
2023-04-13T00:33:52.161Z,57.17
2023-04-13T00:36:25.557Z,57.44
2023-04-13T00:38:58.524Z,57.36
2023-04-13T00:41:28.350Z,57.44
2023-04-13T00:44:00.243Z,57.41
2023-04-13T00:46:30.683Z,57.72
2023-04-13T00:49:02.968Z,57.66
2023-04-13T00:51:34.110Z,57.90
2023-04-13T00:54:03.966Z,58.33
2023-04-13T00:56:34.850Z,58.19
2023-04-13T00:59:05.005Z,58.53
2023-04-13T01:01:34.620Z,58.04
2023-04-13T01:04:03.785Z,58.14
2023-04-13T01:06:45.428Z,58.08
2023-04-13T01:09:27.241Z,58.28
2023-04-13T01:12:18.021Z,58.64
2023-04-13T01:14:57.177Z,59.13
2023-04-13T01:17:31.629Z,59.25
2023-04-13T01:20:11.746Z,59.68
2023-04-13T01:23:03.001Z,57.37
2023-04-13T01:25:48.573Z,59.23
2023-04-13T01:28:24.889Z,57.53
2023-04-13T01:30:56.738Z,58.95
2023-04-13T01:33:26.611Z,58.07
2023-04-13T01:35:57.482Z,58.44
2023-04-13T01:38:27.900Z,59.85
2023-04-13T01:40:59.881Z,60.51
2023-04-13T01:43:32.442Z,61.04
2023-04-13T01:46:14.946Z,61.05
2023-04-13T01:49:12.273Z,61.24
2023-04-13T01:51:55.857Z,61.00
2023-04-13T01:54:30.215Z,60.77
2023-04-13T01:57:01.092Z,61.15
2023-04-13T01:59:31.928Z,61.15
2023-04-13T02:02:01.221Z,60.81
2023-04-13T02:04:30.572Z,61.01
2023-04-13T02:07:00.924Z,60.92
2023-04-13T02:09:35.760Z,59.29
2023-04-13T02:12:05.498Z,58.09
2023-04-13T02:14:39.659Z,56.03
2023-04-13T02:17:09.655Z,52.70
2023-04-13T02:19:39.007Z,50.30
2023-04-13T02:22:08.793Z,48.34
2023-04-13T02:24:38.661Z,46.44
2023-04-13T02:27:08.954Z,45.60
2023-04-13T02:29:38.458Z,45.15
2023-04-13T02:32:08.152Z,44.48
2023-04-13T02:34:37.727Z,44.10
2023-04-13T02:37:09.536Z,42.87
2023-04-13T02:39:40.511Z,41.93
2023-04-13T02:42:11.591Z,38.05
2023-04-13T02:44:41.852Z,39.73
2023-04-13T02:47:11.346Z,39.08
2023-04-13T02:49:42.458Z,37.05
2023-04-13T02:52:19.689Z,40.51
2023-04-13T02:55:01.953Z,40.83
2023-04-13T02:57:39.410Z,40.74
2023-04-13T03:00:12.539Z,38.14
2023-04-13T03:02:49.914Z,38.88
2023-04-13T03:05:21.222Z,38.30
2023-04-13T03:07:50.583Z,39.86
2023-04-13T03:10:20.493Z,38.70
2023-04-13T03:12:50.309Z,40.95
2023-04-13T03:15:20.070Z,40.52
2023-04-13T03:17:49.334Z,39.29
2023-04-13T03:20:24.839Z,37.84
2023-04-13T03:23:00.403Z,38.59
2023-04-13T03:25:34.231Z,37.41
2023-04-13T03:28:05.210Z,36.61
2023-04-13T03:30:39.731Z,35.68
2023-04-13T03:33:09.584Z,36.10
2023-04-13T03:35:40.693Z,35.81
2023-04-13T03:38:17.516Z,35.93
2023-04-13T03:40:49.554Z,36.10
2023-04-13T03:43:18.983Z,37.93
2023-04-13T03:45:55.618Z,39.43
2023-04-13T03:48:25.695Z,38.41
2023-04-13T03:50:56.046Z,38.70
2023-04-13T03:53:31.887Z,37.53
2023-04-13T03:56:01.282Z,37.26
2023-04-13T03:58:33.962Z,36.23
2023-04-13T04:01:04.135Z,38.32
2023-04-13T04:03:43.036Z,37.48
2023-04-13T04:06:13.530Z,36.08
2023-04-13T04:08:50.972Z,34.49
2023-04-13T04:11:40.279Z,35.21
2023-04-13T04:14:11.533Z,37.02
2023-04-13T04:16:47.899Z,38.65
2023-04-13T04:19:19.638Z,36.98
2023-04-13T04:21:50.994Z,37.15
2023-04-13T04:24:24.478Z,37.22
2023-04-13T04:26:59.654Z,38.20
2023-04-13T04:29:37.989Z,38.11
2023-04-13T04:32:25.263Z,35.81
2023-04-13T04:34:56.612Z,37.04
2023-04-13T04:37:27.639Z,37.25
2023-04-13T04:40:16.421Z,37.80
2023-04-13T04:42:46.019Z,38.06
2023-04-13T04:45:39.632Z,35.63
2023-04-13T04:48:09.423Z,32.82
2023-04-13T04:50:38.990Z,35.52
2023-04-13T04:53:13.856Z,34.32
2023-04-13T04:55:44.071Z,35.19
2023-04-13T04:58:21.235Z,36.45
2023-04-13T05:00:54.901Z,37.19
2023-04-13T05:03:24.934Z,35.71
2023-04-13T05:06:05.040Z,36.36
2023-04-13T05:08:35.830Z,33.17
2023-04-13T05:11:08.389Z,34.90
2023-04-13T05:13:37.907Z,34.98
2023-04-13T05:16:19.986Z,31.38
2023-04-13T05:18:50.528Z,33.66
2023-04-13T05:21:39.931Z,33.59
2023-04-13T05:24:09.812Z,32.88
2023-04-13T05:26:40.161Z,30.47
2023-04-13T05:29:10.683Z,32.96
2023-04-13T05:31:43.225Z,31.17
2023-04-13T05:34:13.039Z,28.17
2023-04-13T05:36:49.322Z,29.87
2023-04-13T05:39:18.723Z,31.79
2023-04-13T05:41:48.777Z,27.44
2023-04-13T05:44:19.604Z,32.86
2023-04-13T05:46:54.625Z,34.56
2023-04-13T05:49:24.304Z,28.74
2023-04-13T05:51:55.815Z,26.51
2023-04-13T05:54:35.497Z,28.48
2023-04-13T05:57:05.113Z,29.18
2023-04-13T05:59:35.056Z,30.65
2023-04-13T06:02:05.618Z,30.55
2023-04-13T06:04:36.208Z,28.97
2023-04-13T06:07:05.626Z,31.08
2023-04-13T06:09:35.728Z,31.60
2023-04-13T06:12:05.125Z,26.48
2023-04-13T06:14:35.839Z,28.80
2023-04-13T06:17:05.263Z,29.96
2023-04-13T06:19:35.069Z,31.90
2023-04-13T06:22:04.587Z,27.96
2023-04-13T06:24:38.683Z,28.84
2023-04-13T06:27:10.687Z,30.07
2023-04-13T06:29:41.846Z,29.81
2023-04-13T06:32:14.254Z,27.70
2023-04-13T06:34:45.861Z,27.18
2023-04-13T06:37:17.681Z,24.65
2023-04-13T06:39:50.238Z,27.37
2023-04-13T06:42:20.800Z,26.29
2023-04-13T06:45:25.870Z,25.81
2023-04-13T06:47:56.530Z,26.80
2023-04-13T06:50:26.944Z,26.58
2023-04-13T06:53:00.921Z,26.66
2023-04-13T06:55:32.143Z,26.57
2023-04-13T06:58:02.060Z,25.24
2023-04-13T07:00:31.661Z,23.26
2023-04-13T07:03:03.191Z,23.90
2023-04-13T07:05:33.486Z,26.58
2023-04-13T07:08:08.752Z,22.71
2023-04-13T07:10:40.608Z,23.32
2023-04-13T07:13:18.520Z,26.02
2023-04-13T07:15:52.195Z,25.74
2023-04-13T07:18:21.972Z,25.92
2023-04-13T07:20:52.085Z,28.19
2023-04-13T07:23:24.192Z,26.31
2023-04-13T07:25:53.828Z,28.10
2023-04-13T07:28:27.530Z,26.59
2023-04-13T07:30:59.501Z,25.55
2023-04-13T07:33:29.000Z,26.71
2023-04-13T07:35:58.622Z,28.06
2023-04-13T07:38:31.213Z,28.29
2023-04-13T07:41:00.586Z,25.42
2023-04-13T07:43:33.432Z,26.91
2023-04-13T07:46:12.869Z,26.03
2023-04-13T07:48:44.627Z,27.02
2023-04-13T07:51:24.554Z,28.66
2023-04-13T07:53:55.814Z,27.53
2023-04-13T07:56:28.870Z,26.84
2023-04-13T07:58:59.555Z,29.57
2023-04-13T08:01:30.106Z,28.27
2023-04-13T08:04:03.625Z,28.48
2023-04-13T08:06:34.313Z,28.71
2023-04-13T08:09:04.743Z,25.71
2023-04-13T08:11:34.841Z,25.56
2023-04-13T08:14:10.839Z,29.00
2023-04-13T08:16:41.554Z,29.31
2023-04-13T08:19:12.565Z,28.69
2023-04-13T08:21:48.413Z,23.93
2023-04-13T08:24:18.429Z,23.81
2023-04-13T08:26:48.412Z,23.11
2023-04-13T08:29:17.933Z,22.56
2023-04-13T08:31:49.145Z,22.50
2023-04-13T08:34:19.903Z,25.59
2023-04-13T08:36:49.554Z,24.42
2023-04-13T08:39:18.865Z,23.18
2023-04-13T08:41:50.072Z,21.96
2023-04-13T08:44:22.490Z,23.72
2023-04-13T08:46:54.585Z,23.08
2023-04-13T08:49:30.458Z,25.45
2023-04-13T08:52:29.736Z,23.16
2023-04-13T08:55:03.421Z,22.85
2023-04-13T08:57:37.106Z,24.67
2023-04-13T09:00:12.583Z,28.14
2023-04-13T09:02:56.014Z,26.21
2023-04-13T09:05:38.606Z,24.00
2023-04-13T09:08:10.932Z,25.08
2023-04-13T09:10:42.298Z,22.43
2023-04-13T09:13:13.000Z,22.22
2023-04-13T09:15:44.400Z,25.17
2023-04-13T09:18:26.442Z,25.29
2023-04-13T09:21:02.978Z,26.59
2023-04-13T09:23:32.628Z,24.66
2023-04-13T09:26:11.799Z,24.91
2023-04-13T09:28:52.447Z,25.85
2023-04-13T09:31:23.176Z,26.66
2023-04-13T09:33:54.340Z,23.95
2023-04-13T09:36:24.395Z,24.21
2023-04-13T09:38:57.188Z,24.45
2023-04-13T09:41:47.800Z,27.20
2023-04-13T09:44:23.455Z,27.02
2023-04-13T09:47:03.553Z,28.01
2023-04-13T09:49:42.107Z,29.70
2023-04-13T09:52:23.985Z,27.10
2023-04-13T09:54:54.238Z,26.14
2023-04-13T09:57:28.427Z,27.81
2023-04-13T10:00:01.894Z,28.11
2023-04-13T10:02:41.993Z,29.11
2023-04-13T10:05:12.669Z,28.47
2023-04-13T10:07:47.647Z,28.88
2023-04-13T10:10:18.278Z,27.00
2023-04-13T10:12:55.870Z,29.01
2023-04-13T10:16:04.080Z,30.05
2023-04-13T10:19:01.706Z,28.48
2023-04-13T10:21:40.452Z,28.20
2023-04-13T10:24:13.676Z,29.53
2023-04-13T10:26:47.226Z,28.01
2023-04-13T10:29:18.560Z,27.78
2023-04-13T10:31:53.567Z,25.53
2023-04-13T10:34:28.435Z,26.96
2023-04-13T10:37:05.176Z,28.03
2023-04-13T10:39:37.299Z,28.63
2023-04-13T10:42:11.382Z,26.83
2023-04-13T10:44:51.577Z,27.94
2023-04-13T10:47:22.611Z,27.46
2023-04-13T10:49:53.868Z,26.39
2023-04-13T10:52:23.686Z,27.95
2023-04-13T10:54:54.298Z,29.44
2023-04-13T10:57:24.317Z,28.09
2023-04-13T10:59:59.334Z,29.69
2023-04-13T11:02:34.045Z,29.81
2023-04-13T11:05:04.577Z,26.69
2023-04-13T11:07:35.617Z,28.37
2023-04-13T11:10:05.531Z,26.39
2023-04-13T11:12:34.573Z,25.84
2023-04-13T11:15:04.280Z,26.07
2023-04-13T11:17:33.573Z,26.92
2023-04-13T11:20:03.542Z,22.91
2023-04-13T11:22:37.704Z,26.30
2023-04-13T11:25:10.014Z,26.69
2023-04-13T11:27:40.067Z,27.68
2023-04-13T11:30:12.240Z,27.20
2023-04-13T11:32:46.285Z,26.71
2023-04-13T11:35:16.711Z,25.85
2023-04-13T11:37:50.074Z,25.10
2023-04-13T11:40:26.823Z,27.21
2023-04-13T11:42:59.476Z,24.60
2023-04-13T11:45:31.608Z,26.93
2023-04-13T11:48:01.626Z,27.41
2023-04-13T11:50:32.064Z,26.99
2023-04-13T11:53:02.022Z,27.46
2023-04-13T11:55:39.457Z,25.97
2023-04-13T11:58:20.051Z,27.18
2023-04-13T12:00:50.750Z,27.56
2023-04-13T12:06:02.900Z,26.42
2023-04-13T12:08:34.237Z,26.21
2023-04-13T12:11:36.761Z,25.10
2023-04-13T12:14:08.894Z,24.02
2023-04-13T12:19:14.300Z,26.03
2023-04-13T12:21:57.917Z,26.06
2023-04-13T12:24:38.959Z,26.61
2023-04-13T12:29:42.329Z,26.39
2023-04-13T12:32:15.612Z,26.71
2023-04-13T12:34:46.214Z,27.36
2023-04-13T12:37:15.646Z,26.15
2023-04-13T12:39:44.930Z,27.54
2023-04-13T12:42:14.366Z,25.19
2023-04-13T12:44:43.875Z,28.94
2023-04-13T12:47:13.432Z,29.58
2023-04-13T12:49:42.908Z,30.14
2023-04-13T12:52:12.428Z,30.16
2023-04-13T12:54:42.043Z,30.32
2023-04-13T12:57:12.068Z,31.14
2023-04-13T12:59:41.955Z,31.58
2023-04-13T13:02:11.805Z,30.81
2023-04-13T13:04:41.652Z,31.06
2023-04-13T13:07:11.042Z,26.20
2023-04-13T13:09:40.731Z,30.98
2023-04-13T13:12:10.672Z,30.34
2023-04-13T13:14:39.855Z,31.35
2023-04-13T13:17:09.372Z,32.10
2023-04-13T13:19:39.180Z,34.48
2023-04-13T13:22:08.645Z,35.23
2023-04-13T13:24:40.445Z,36.33
2023-04-13T13:27:48.474Z,37.19
2023-04-13T13:30:04.574Z,36.86
2023-04-13T13:32:33.831Z,38.15
2023-04-13T13:35:04.270Z,38.07
2023-04-13T13:37:34.392Z,39.23
2023-04-13T13:40:13.833Z,40.05
2023-04-13T13:42:51.864Z,39.62
2023-04-13T13:45:26.034Z,40.89
2023-04-13T13:47:59.753Z,41.27
2023-04-13T13:50:40.159Z,41.45
2023-04-13T13:53:10.607Z,42.01
2023-04-13T13:55:43.938Z,42.49
2023-04-13T13:58:13.762Z,43.12
2023-04-13T14:00:43.371Z,43.07
2023-04-13T14:03:15.188Z,43.33
2023-04-13T14:05:44.936Z,43.76
2023-04-13T14:08:14.380Z,42.82
2023-04-13T14:10:49.513Z,43.26
2023-04-13T14:13:19.216Z,43.69
2023-04-13T14:15:48.764Z,43.73
2023-04-13T14:18:18.622Z,43.00
2023-04-13T14:20:47.879Z,43.13
2023-04-13T14:23:18.166Z,42.67
2023-04-13T14:25:47.659Z,42.77
2023-04-13T14:28:19.775Z,41.20
2023-04-13T14:30:49.265Z,40.28
2023-04-13T14:33:19.411Z,40.51
2023-04-13T14:35:49.616Z,41.01
2023-04-13T14:38:18.905Z,41.12
2023-04-13T14:40:48.319Z,42.55
2023-04-13T14:43:18.498Z,47.49
2023-04-13T14:45:48.053Z,44.43
2023-04-13T14:48:18.626Z,45.86
2023-04-13T14:50:49.132Z,43.38
2023-04-13T14:53:18.898Z,45.15
2023-04-13T14:55:48.656Z,45.42
2023-04-13T14:58:18.042Z,44.82
2023-04-13T15:00:47.558Z,45.49
2023-04-13T15:03:18.982Z,44.66
2023-04-13T15:05:49.631Z,44.21
2023-04-13T15:08:20.860Z,45.57
2023-04-13T15:10:50.339Z,41.55
2023-04-13T15:13:20.528Z,42.93
2023-04-13T15:15:51.076Z,40.75
2023-04-13T15:18:20.815Z,41.90
2023-04-13T15:20:50.753Z,40.90
2023-04-13T15:23:20.821Z,40.77
2023-04-13T15:25:50.802Z,39.94
2023-04-13T15:28:20.918Z,41.12
2023-04-13T15:30:52.907Z,42.10
2023-04-13T15:33:22.699Z,42.93
2023-04-13T15:35:54.043Z,43.02
2023-04-13T15:38:24.210Z,43.46
2023-04-13T15:40:54.279Z,44.17
2023-04-13T15:43:24.225Z,43.22
2023-04-13T15:45:53.514Z,44.49
2023-04-13T15:48:23.126Z,44.62
2023-04-13T15:50:59.966Z,44.07
2023-04-13T15:53:30.229Z,44.75
2023-04-13T15:55:59.989Z,44.62
2023-04-13T15:58:29.767Z,40.90
2023-04-13T16:01:04.816Z,40.59
2023-04-13T16:03:36.433Z,42.71
2023-04-13T16:06:06.315Z,41.82
2023-04-13T16:08:36.215Z,42.53
2023-04-13T16:11:05.457Z,43.85
2023-04-13T16:16:15.456Z,42.60
2023-04-13T16:18:46.068Z,43.12
2023-04-13T16:21:20.188Z,43.05
2023-04-13T16:23:49.912Z,43.78
2023-04-13T16:26:21.385Z,43.71
2023-04-13T16:28:52.605Z,44.28
2023-04-13T16:31:22.515Z,43.09
2023-04-13T16:33:53.336Z,43.97
2023-04-13T16:36:24.763Z,44.01
2023-04-13T16:38:54.997Z,44.81
2023-04-13T16:41:24.604Z,45.36
2023-04-13T16:43:54.037Z,45.49
2023-04-13T16:46:23.974Z,45.84
2023-04-13T16:48:53.112Z,46.17
2023-04-13T16:51:22.463Z,46.59
2023-04-13T16:53:52.862Z,47.03
2023-04-13T16:56:23.550Z,47.22
2023-04-13T16:58:53.513Z,47.08
2023-04-13T17:01:22.930Z,47.17
2023-04-13T17:03:53.800Z,47.72
2023-04-13T17:06:23.824Z,47.32
2023-04-13T17:08:53.101Z,47.67
2023-04-13T17:11:22.905Z,48.25
2023-04-13T17:13:53.141Z,48.71
2023-04-13T17:16:23.785Z,48.54
2023-04-13T17:18:53.644Z,49.06
2023-04-13T17:21:23.332Z,49.24
2023-04-13T17:23:52.832Z,49.30
2023-04-13T17:26:22.636Z,49.80
2023-04-13T17:28:52.424Z,49.93
2023-04-13T17:31:22.080Z,49.89
2023-04-13T17:33:51.520Z,50.25
2023-04-13T17:36:23.198Z,50.82
2023-04-13T17:38:52.839Z,50.95
2023-04-13T17:41:23.012Z,50.89
2023-04-13T17:43:52.528Z,51.42
2023-04-13T17:46:21.767Z,51.58
2023-04-13T17:48:51.828Z,51.81
2023-04-13T17:51:21.102Z,50.78
2023-04-13T17:53:50.605Z,51.56
2023-04-13T17:56:21.380Z,51.29
2023-04-13T17:58:52.208Z,51.52
2023-04-13T18:01:23.906Z,51.73
2023-04-13T18:03:54.307Z,52.10
2023-04-13T18:06:24.162Z,51.41
2023-04-13T18:08:53.583Z,52.29
2023-04-13T18:11:22.966Z,52.54
2023-04-13T18:13:52.587Z,52.81
2023-04-13T18:16:22.159Z,52.92
2023-04-13T18:18:52.614Z,53.53
2023-04-13T18:21:22.359Z,53.09
2023-04-13T18:23:52.775Z,53.44
2023-04-13T18:26:23.667Z,53.15
2023-04-13T18:28:53.746Z,53.59
2023-04-13T18:31:23.072Z,53.55
2023-04-13T18:33:52.994Z,53.94
2023-04-13T18:36:22.200Z,54.27
2023-04-13T18:38:52.245Z,54.41
2023-04-13T18:41:21.987Z,54.79
2023-04-13T18:43:51.749Z,54.12
2023-04-13T18:46:21.541Z,54.44
2023-04-13T18:48:51.769Z,55.02
2023-04-13T18:51:21.293Z,55.22
2023-04-13T18:53:51.244Z,55.01
2023-04-13T18:56:20.756Z,54.67
2023-04-13T18:58:50.425Z,55.59
2023-04-13T19:01:21.157Z,55.36
2023-04-13T19:03:53.375Z,55.68
2023-04-13T19:06:23.492Z,55.93
2023-04-13T19:08:53.106Z,56.25
2023-04-13T19:11:25.702Z,56.65
2023-04-13T19:13:55.372Z,57.04
2023-04-13T19:16:25.471Z,56.65
2023-04-13T19:18:55.017Z,56.92
2023-04-13T19:21:25.568Z,57.61
2023-04-13T19:23:57.129Z,57.69
2023-04-13T19:26:27.139Z,57.86
2023-04-13T19:28:57.324Z,57.88
2023-04-13T19:31:26.887Z,57.81
2023-04-13T19:33:56.578Z,58.65
2023-04-13T19:36:26.083Z,58.70
2023-04-13T19:38:55.542Z,58.28
2023-04-13T19:41:25.746Z,58.45
2023-04-13T19:43:55.861Z,59.06
2023-04-13T19:46:25.866Z,59.12
2023-04-13T19:48:59.525Z,59.20
2023-04-13T19:51:29.942Z,58.90
2023-04-13T19:54:02.597Z,58.93
2023-04-13T19:56:32.826Z,59.18
2023-04-13T19:59:05.811Z,59.18
2023-04-13T20:01:35.716Z,59.54
2023-04-13T20:04:07.027Z,59.64
2023-04-13T20:06:37.010Z,59.66
2023-04-13T20:09:14.210Z,60.10
2023-04-13T20:11:43.913Z,60.02
2023-04-13T20:14:13.592Z,60.26
2023-04-13T20:16:42.809Z,59.63
2023-04-13T20:19:13.040Z,60.49
2023-04-13T20:21:42.998Z,59.96
2023-04-13T20:24:13.036Z,59.60
2023-04-13T20:26:43.437Z,59.74
2023-04-13T20:29:12.978Z,58.84
2023-04-13T20:31:42.850Z,59.74
2023-04-13T20:34:14.563Z,60.51
2023-04-13T20:36:44.128Z,60.21
2023-04-13T20:39:14.705Z,60.33
2023-04-13T20:41:51.943Z,60.68
2023-04-13T20:44:24.692Z,61.12
2023-04-13T20:46:57.832Z,61.13
2023-04-13T20:49:27.774Z,61.41
2023-04-13T20:52:03.210Z,61.43
2023-04-13T20:54:32.841Z,61.60
2023-04-13T20:57:02.570Z,61.89
2023-04-13T20:59:32.062Z,61.65
2023-04-13T21:02:01.799Z,62.43
2023-04-13T21:04:31.910Z,61.99
2023-04-13T21:07:03.398Z,62.49
2023-04-13T21:09:32.889Z,62.14
2023-04-13T21:12:02.752Z,62.80
2023-04-13T21:14:33.245Z,62.50
2023-04-13T21:17:02.712Z,62.33
2023-04-13T21:19:35.075Z,62.50
2023-04-13T21:22:05.635Z,62.78
2023-04-13T21:24:35.098Z,63.42
2023-04-13T21:27:04.190Z,63.43
2023-04-13T21:29:33.618Z,63.05
2023-04-13T21:32:03.480Z,63.24
2023-04-13T21:34:33.574Z,63.49
2023-04-13T21:37:04.190Z,63.36
2023-04-13T21:39:34.905Z,63.33
2023-04-13T21:42:10.064Z,63.41
2023-04-13T21:44:39.799Z,63.72
2023-04-13T21:47:09.126Z,63.13
2023-04-13T21:49:39.259Z,62.19
2023-04-13T21:52:08.639Z,60.63
2023-04-13T21:54:37.955Z,59.68
2023-04-13T21:57:07.507Z,59.52
2023-04-13T21:59:36.934Z,59.35
2023-04-13T22:02:06.700Z,58.96
2023-04-13T22:04:36.032Z,60.14
2023-04-13T22:07:05.921Z,60.01
2023-04-13T22:09:35.757Z,59.99
2023-04-13T22:12:05.570Z,59.70
2023-04-13T22:14:34.967Z,59.56
2023-04-13T22:17:05.061Z,60.34
2023-04-13T22:19:34.294Z,60.50
2023-04-13T22:22:03.657Z,60.96
2023-04-13T22:24:33.090Z,61.27
2023-04-13T22:27:06.487Z,61.50
2023-04-13T22:29:36.583Z,61.18
2023-04-13T22:32:05.757Z,60.66
2023-04-13T22:34:35.839Z,61.43
2023-04-13T22:37:06.338Z,61.16
2023-04-13T22:39:38.692Z,61.03
2023-04-13T22:42:08.387Z,61.49
2023-04-13T22:44:37.573Z,61.56
2023-04-13T22:47:07.082Z,60.71
2023-04-13T22:49:36.499Z,61.36
2023-04-13T22:52:06.095Z,61.81
2023-04-13T22:54:35.714Z,61.54
2023-04-13T22:57:06.023Z,61.85
2023-04-13T22:59:35.667Z,62.10
2023-04-13T23:02:05.680Z,62.15
2023-04-13T23:04:35.310Z,62.27
2023-04-13T23:07:05.334Z,62.94
2023-04-13T23:09:34.774Z,62.41
2023-04-13T23:12:04.127Z,62.57
2023-04-13T23:14:33.511Z,62.96
2023-04-13T23:17:02.982Z,62.93
2023-04-13T23:19:32.459Z,62.65
2023-04-13T23:22:01.919Z,63.33
2023-04-13T23:24:31.500Z,63.06
2023-04-13T23:27:00.897Z,62.73
2023-04-13T23:29:30.315Z,62.60
2023-04-13T23:32:00.624Z,62.59
2023-04-13T23:34:29.970Z,62.56
2023-04-13T23:36:59.627Z,62.37
2023-04-13T23:39:29.624Z,63.12
2023-04-13T23:41:59.114Z,62.75
2023-04-13T23:44:28.760Z,62.42
2023-04-13T23:46:58.235Z,62.08
2023-04-13T23:49:28.215Z,61.88
2023-04-13T23:51:57.332Z,62.33
2023-04-13T23:54:27.350Z,61.61
2023-04-13T23:56:56.547Z,62.05
2023-04-13T23:59:26.857Z,62.33
